Impacts TAF Board INFO
FOR SITUATIONAL AWARENESS. NOT TO BE USED FOR FLIGHT PLANNING PURPOSES.
IDs:

KTPA - Tampa Intl Arpt, FL, US

Issued at 1730 UTC 25 May 2017
Updated at 2008 UTC 25 May 2017
Potential Impact None Slight Moderate High
Time1953Z 25/21Z 25/22Z 25/23Z 26/00Z 26/01Z 26/02Z 26/03Z 26/04Z 26/05Z 26/06Z 26/07Z 26/08Z 26/09Z>>
Type OBS PRVL PRVL PRVL PRVL PRVL PRVL PRVL PRVL PRVL PRVL PRVL PRVL PRVL
VIS 10 >6 >6 >6 >6 >6 >6 >6 >6 >6 >6 >6 >6 >6
CIG -- 60 60 60 -- -- -- -- -- -- -- -- -- --
Cover SCT BKN BKN BKN SCT SCT SKC SKC SKC SKC SKC SKC SKC SKC
FltCat VFR VFR VFR VFR VFR VFR VFR VFR VFR VFR VFR VFR VFR VFR
WX -- -- -- -- -- -- -- -- -- -- -- -- -- --
WDir 280 280 280 280 290 290 280 280 280 280 VRB VRB VRB VRB
WSpd 10 12 12 12 11 11 7 7 7 7 3 3 3 3
WGst -- -- -- -- -- -- -- -- -- -- -- -- -- --

Raw TAF
KTPA 251730Z 2518/2618 28012KT P6SM BKN060 BKN250
  FM260000 29011KT P6SM FEW080 SCT250
  FM260200 28007KT P6SM SKC
  FM260600 VRB03KT P6SM SKC
  FM261500 24006KT P6SM FEW250


Raw METAR
KTPA 251953Z 28010KT 10SM SCT060 28/16 A2988 RMK AO2 SLP117 T02830161
KTPA 251853Z 30009KT 10SM BKN060 28/16 A2989 RMK AO2 SLP121 T02830156
KTPA 251753Z 27010KT 10SM BKN060 28/16 A2990 RMK AO2 SLP123 T02830156 10283 20250 53002

METAR Board
Radar Display
Forecast Discussion

FOR SITUATIONAL AWARENESS. NOT TO BE USED FOR FLIGHT PLANNING PURPOSES.

Page loaded:  20:08 UTC  |   01:08 PM Pacific  |   02:08 PM Mountain  |   03:08 PM Central  |   04:08 PM Eastern

 

ADVISORIES

FORECASTS

FORECASTS

OBSERVATIONS

USER TOOLS

ABOUT US